Time;durP1;ratioP1;P1;durP2;ratioP2;P2;SDS_P1;SDS_P2;PMS_P1;PMS_P2;Temp;Humidity;BMP_temperature;BMP_pressure;BME280_temperature;BME280_humidity;BME280_pressure;Samples;Min_cycle;Max_cycle;Signal;HPM_P1;HPM_P2
2023/09/15 00:00:35;;;;;;;8.88;3.25;;;15.10;99.90;;;;;;5014127;28;20181;-74
2023/09/15 00:03:00;;;;;;;7.70;3.92;;;15.10;99.90;;;;;;5040672;28;20169;-74
2023/09/15 00:05:29;;;;;;;5.68;3.30;;;14.90;99.90;;;;;;5033740;28;20184;-74
2023/09/15 00:07:58;;;;;;;8.05;3.53;;;15.00;99.90;;;;;;5051605;28;20212;-74
2023/09/15 00:10:23;;;;;;;5.43;3.70;;;15.00;99.90;;;;;;5051613;28;20204;-75
2023/09/15 00:12:49;;;;;;;9.75;4.22;;;15.00;99.90;;;;;;5051560;28;20707;-74
2023/09/15 00:15:15;;;;;;;5.85;3.70;;;15.00;99.90;;;;;;5051709;28;20169;-75
2023/09/15 00:17:42;;;;;;;11.90;4.80;;;14.90;99.90;;;;;;5051913;28;20274;-75
2023/09/15 00:20:13;;;;;;;6.90;4.10;;;14.90;99.90;;;;;;5051610;28;20311;-75
2023/09/15 00:22:51;;;;;;;6.90;3.47;;;14.90;99.90;;;;;;5051456;28;20165;-74
2023/09/15 00:25:26;;;;;;;6.15;3.58;;;14.80;99.90;;;;;;5051276;28;20212;-74
2023/09/15 00:27:54;;;;;;;8.85;3.45;;;14.80;99.90;;;;;;5051366;28;20180;-74
2023/09/15 00:30:24;;;;;;;7.72;3.95;;;14.80;99.90;;;;;;5051063;28;20169;-74
2023/09/15 00:32:50;;;;;;;4.88;3.42;;;14.70;99.90;;;;;;5051048;28;20676;-74
2023/09/15 00:35:26;;;;;;;9.63;4.25;;;14.80;99.90;;;;;;5050889;28;20490;-73
2023/09/15 00:37:55;;;;;;;5.28;3.72;;;14.70;99.90;;;;;;5050994;28;20514;-73
2023/09/15 00:40:21;;;;;;;6.55;3.65;;;14.70;99.90;;;;;;5035313;28;20718;-73
2023/09/15 00:42:49;;;;;;;8.23;3.90;;;14.70;99.90;;;;;;5031173;28;20216;-74
2023/09/15 00:45:18;;;;;;;5.90;4.20;;;14.60;99.90;;;;;;5031249;28;20177;-74
2023/09/15 00:47:46;;;;;;;9.95;4.60;;;14.60;99.90;;;;;;5030672;28;20236;-76
2023/09/15 00:50:14;;;;;;;7.85;3.90;;;14.60;99.90;;;;;;5030703;28;20174;-73
2023/09/15 00:52:43;;;;;;;8.13;3.80;;;14.50;99.90;;;;;;5030772;28;20220;-74
2023/09/15 00:55:10;;;;;;;8.55;4.20;;;14.50;99.90;;;;;;5046061;28;20212;-74
2023/09/15 00:57:39;;;;;;;7.40;3.95;;;14.50;99.90;;;;;;5048690;28;20173;-73
2023/09/15 01:00:14;;;;;;;11.23;4.35;;;14.40;99.90;;;;;;5030698;28;20675;-73
2023/09/15 01:02:42;;;;;;;6.70;4.45;;;14.40;99.90;;;;;;5030859;28;20230;-73
2023/09/15 01:05:10;;;;;;;6.28;4.00;;;14.10;99.90;;;;;;5030910;28;20260;-73
2023/09/15 01:07:37;;;;;;;12.05;4.20;;;14.30;99.90;;;;;;5031019;28;20173;-74
2023/09/15 01:10:04;;;;;;;9.10;3.75;;;14.30;99.90;;;;;;5034909;28;20173;-73
2023/09/15 01:12:31;;;;;;;7.55;4.05;;;14.20;99.90;;;;;;5050416;28;20208;-73
2023/09/15 01:14:57;;;;;;;9.95;4.00;;;14.20;99.90;;;;;;5050632;28;20177;-74
2023/09/15 01:17:29;;;;;;;7.60;4.30;;;14.20;99.90;;;;;;5049966;28;20181;-73
2023/09/15 01:20:20;;;;;;;6.53;3.70;;;14.20;99.90;;;;;;5050598;28;20184;-72
2023/09/15 01:23:15;;;;;;;6.45;4.30;;;14.20;99.90;;;;;;5050673;28;20276;-73
2023/09/15 01:25:53;;;;;;;9.15;4.18;;;14.10;99.90;;;;;;5050472;28;20370;-73
2023/09/15 01:28:44;;;;;;;9.18;3.85;;;14.10;99.90;;;;;;5032230;28;20169;-74
2023/09/15 01:31:11;;;;;;;7.63;4.10;;;14.00;99.90;;;;;;5050476;28;20671;-74
2023/09/15 01:33:38;;;;;;;13.15;4.55;;;14.10;99.90;;;;;;5050526;28;20222;-74
2023/09/15 01:36:04;;;;;;;13.77;5.78;;;14.20;99.90;;;;;;5032530;28;20176;-73
2023/09/15 01:38:31;;;;;;;7.18;4.85;;;14.20;99.90;;;;;;5050677;28;20527;-74
2023/09/15 01:40:57;;;;;;;9.73;4.88;;;14.10;99.90;;;;;;5050515;28;20188;-74
2023/09/15 01:43:22;;;;;;;9.85;4.75;;;14.10;99.90;;;;;;5050128;28;20539;-72
2023/09/15 01:45:48;;;;;;;8.93;4.70;;;14.10;99.90;;;;;;5050383;28;20227;-72
2023/09/15 01:48:15;;;;;;;10.00;4.72;;;14.10;99.90;;;;;;5032424;28;20255;-72
2023/09/15 01:50:41;;;;;;;7.97;4.43;;;14.10;99.90;;;;;;5028995;28;20186;-72
2023/09/15 01:53:07;;;;;;;14.20;6.75;;;14.10;99.90;;;;;;5030759;28;20210;-73
2023/09/15 01:55:33;;;;;;;11.88;6.03;;;14.10;99.90;;;;;;5030580;28;20186;-73
2023/09/15 01:57:59;;;;;;;8.20;4.95;;;14.10;99.90;;;;;;5030115;28;20257;-73
2023/09/15 02:00:33;;;;;;;7.45;4.65;;;14.20;99.90;;;;;;5030348;28;20193;-73
2023/09/15 02:02:58;;;;;;;13.43;6.95;;;14.10;99.90;;;;;;5030451;28;20185;-73
2023/09/15 02:05:24;;;;;;;8.15;5.68;;;14.10;99.90;;;;;;5030293;28;20273;-73
2023/09/15 02:07:50;;;;;;;8.57;5.45;;;;;;;;;;5030346;28;20199;-73
2023/09/15 02:10:16;;;;;;;8.98;6.35;;;14.10;99.90;;;;;;5030136;28;20236;-73
2023/09/15 02:12:42;;;;;;;11.70;6.75;;;14.10;99.90;;;;;;5030159;28;20621;-73
2023/09/15 02:15:08;;;;;;;10.07;6.97;;;14.10;99.90;;;;;;5030313;28;20173;-74
2023/09/15 02:17:34;;;;;;;11.32;6.35;;;14.10;99.90;;;;;;5030080;28;20177;-73
2023/09/15 02:20:00;;;;;;;9.85;6.22;;;;;;;;;;5030105;28;20170;-73
2023/09/15 02:22:26;;;;;;;10.02;6.53;;;14.10;99.90;;;;;;5030112;28;20267;-73
2023/09/15 02:24:52;;;;;;;10.40;6.22;;;14.00;99.90;;;;;;5030351;28;20175;-73
2023/09/15 02:27:17;;;;;;;11.38;6.45;;;14.00;99.90;;;;;;5030413;28;20218;-73
2023/09/15 02:29:43;;;;;;;11.93;7.80;;;14.00;99.90;;;;;;5033554;28;20728;-73
2023/09/15 02:32:09;;;;;;;11.90;7.00;;;14.00;99.90;;;;;;5033661;28;20206;-74
2023/09/15 02:34:34;;;;;;;12.80;7.25;;;14.00;99.90;;;;;;5033587;28;20174;-74
2023/09/15 02:37:00;;;;;;;12.35;6.85;;;14.00;99.90;;;;;;5033745;28;20174;-73
2023/09/15 02:39:25;;;;;;;11.10;6.32;;;13.90;99.90;;;;;;5033578;28;20257;-74
2023/09/15 02:41:51;;;;;;;9.75;6.53;;;13.90;99.90;;;;;;5015670;28;20178;-73
2023/09/15 02:44:16;;;;;;;9.65;6.05;;;13.80;99.90;;;;;;5015684;28;20740;-72
2023/09/15 02:46:42;;;;;;;9.50;6.93;;;13.70;99.90;;;;;;5033086;28;20186;-72
2023/09/15 02:49:08;;;;;;;8.85;6.40;;;13.70;99.90;;;;;;5033349;28;20177;-73
2023/09/15 02:51:34;;;;;;;16.65;8.02;;;13.60;99.90;;;;;;5033290;28;20214;-73
2023/09/15 02:54:00;;;;;;;11.18;6.95;;;;;;;;;;5033096;28;20220;-73
2023/09/15 02:56:25;;;;;;;10.35;6.93;;;13.60;99.90;;;;;;5033027;28;20249;-73
2023/09/15 02:58:51;;;;;;;10.20;7.47;;;13.60;99.90;;;;;;5032668;28;20277;-73
2023/09/15 03:01:17;;;;;;;11.68;7.63;;;13.60;99.90;;;;;;5032693;28;20165;-73
2023/09/15 03:03:42;;;;;;;10.30;7.00;;;13.60;99.90;;;;;;5029905;28;20517;-73
2023/09/15 03:06:09;;;;;;;14.82;7.13;;;13.50;99.90;;;;;;5042903;28;20660;-73
2023/09/15 03:08:36;;;;;;;12.93;7.35;;;13.60;99.90;;;;;;5014971;28;20180;-73
2023/09/15 03:11:02;;;;;;;12.73;8.15;;;13.60;99.90;;;;;;5032886;28;20186;-74
2023/09/15 03:13:27;;;;;;;11.73;8.00;;;13.60;99.90;;;;;;5032795;28;20182;-74
2023/09/15 03:15:53;;;;;;;13.07;7.85;;;13.50;99.90;;;;;;5032722;28;20169;-74
2023/09/15 03:18:19;;;;;;;17.38;8.20;;;13.60;99.90;;;;;;5032391;28;20181;-73
2023/09/15 03:20:44;;;;;;;12.35;7.72;;;13.50;99.90;;;;;;5014799;28;20185;-73
2023/09/15 03:23:10;;;;;;;12.05;7.90;;;13.70;99.90;;;;;;5032387;28;20202;-73
2023/09/15 03:25:35;;;;;;;9.15;7.10;;;13.50;99.90;;;;;;5014466;28;20674;-73
2023/09/15 03:28:01;;;;;;;12.00;7.55;;;13.30;99.90;;;;;;5032345;28;20185;-75
2023/09/15 03:30:27;;;;;;;9.68;7.03;;;13.60;99.90;;;;;;5032207;28;20182;-75
2023/09/15 03:32:53;;;;;;;11.48;6.18;;;13.50;99.90;;;;;;5032308;28;20207;-73
2023/09/15 03:35:20;;;;;;;10.20;5.97;;;13.30;99.90;;;;;;5031901;28;20181;-75
2023/09/15 03:37:45;;;;;;;15.05;7.38;;;13.30;99.90;;;;;;5032334;28;20178;-73
2023/09/15 03:40:11;;;;;;;11.40;6.90;;;13.30;99.90;;;;;;5031804;28;20556;-73
2023/09/15 03:42:40;;;;;;;9.48;6.45;;;13.30;99.90;;;;;;5031939;28;20236;-73
2023/09/15 03:45:06;;;;;;;8.70;6.57;;;13.20;99.90;;;;;;5032253;28;20192;-73
2023/09/15 03:47:32;;;;;;;8.65;5.85;;;13.20;99.90;;;;;;5031900;28;20182;-72
2023/09/15 03:49:58;;;;;;;13.40;6.45;;;13.30;99.90;;;;;;5032158;28;20200;-72
2023/09/15 03:52:24;;;;;;;12.05;7.07;;;13.20;99.90;;;;;;5031840;28;20686;-73
2023/09/15 03:54:50;;;;;;;12.65;7.00;;;;;;;;;;5031672;28;20186;-73
2023/09/15 03:57:16;;;;;;;13.25;7.28;;;13.30;99.90;;;;;;5031699;28;20346;-73
2023/09/15 03:59:42;;;;;;;13.07;7.10;;;13.30;99.90;;;;;;5031241;28;20182;-72
2023/09/15 04:02:08;;;;;;;10.82;6.63;;;13.40;99.90;;;;;;5040001;28;20173;-73
2023/09/15 04:04:34;;;;;;;10.68;6.90;;;13.30;99.90;;;;;;5051922;28;20193;-73
2023/09/15 04:06:59;;;;;;;11.30;6.78;;;13.40;99.90;;;;;;5036683;28;20615;-73
2023/09/15 04:09:25;;;;;;;9.82;6.78;;;13.30;99.90;;;;;;5014112;28;20224;-73
2023/09/15 04:11:51;;;;;;;8.63;6.57;;;13.30;99.90;;;;;;5031649;28;20215;-74
2023/09/15 04:14:17;;;;;;;8.35;6.63;;;13.30;99.90;;;;;;5031680;28;20177;-73
2023/09/15 04:16:43;;;;;;;10.63;6.65;;;13.30;99.90;;;;;;5031548;28;20170;-73
2023/09/15 04:19:09;;;;;;;10.27;6.85;;;13.30;99.90;;;;;;5046256;28;20199;-73
2023/09/15 04:21:37;;;;;;;10.27;6.78;;;13.30;99.90;;;;;;5051554;28;20184;-73
2023/09/15 04:24:03;;;;;;;10.60;6.90;;;13.20;99.90;;;;;;5051404;28;20216;-73
2023/09/15 04:26:29;;;;;;;10.38;6.75;;;13.30;99.90;;;;;;5050993;28;20221;-73
2023/09/15 04:28:54;;;;;;;10.15;7.30;;;13.20;99.90;;;;;;5051400;28;20231;-72
2023/09/15 04:31:20;;;;;;;10.38;6.78;;;13.30;99.90;;;;;;5051106;28;20203;-73
2023/09/15 04:33:48;;;;;;;9.98;6.88;;;13.20;99.90;;;;;;5033437;28;20178;-73
2023/09/15 04:36:13;;;;;;;12.60;7.28;;;13.20;99.90;;;;;;5051332;28;20177;-73
2023/09/15 04:38:39;;;;;;;9.82;6.90;;;13.20;99.90;;;;;;5051250;28;20647;-73
2023/09/15 04:41:05;;;;;;;11.07;6.75;;;13.20;99.90;;;;;;5051162;28;20172;-71
2023/09/15 04:43:31;;;;;;;8.88;6.90;;;13.20;99.90;;;;;;5051047;28;20181;-72
2023/09/15 04:45:57;;;;;;;11.43;7.50;;;13.20;99.90;;;;;;5051101;28;20627;-73
2023/09/15 04:48:22;;;;;;;9.98;6.90;;;13.20;99.90;;;;;;5051094;28;20192;-74
2023/09/15 04:50:48;;;;;;;12.00;6.85;;;13.20;99.90;;;;;;5050602;28;20169;-74
2023/09/15 04:53:15;;;;;;;11.68;6.75;;;13.20;99.90;;;;;;5050580;28;20172;-73
2023/09/15 04:55:40;;;;;;;10.70;6.90;;;13.30;99.90;;;;;;5035907;28;20178;-74
2023/09/15 04:58:06;;;;;;;12.95;7.72;;;13.20;99.90;;;;;;5030739;28;20174;-73
2023/09/15 05:00:34;;;;;;;13.10;7.45;;;13.20;99.90;;;;;;5030567;28;20177;-72
2023/09/15 05:03:03;;;;;;;11.48;7.55;;;13.20;99.90;;;;;;5030373;28;20652;-74
2023/09/15 05:05:29;;;;;;;12.27;7.43;;;13.20;99.90;;;;;;5047103;28;20178;-74
2023/09/15 05:07:56;;;;;;;12.57;7.88;;;13.20;99.90;;;;;;5030464;28;20662;-74
2023/09/15 05:10:22;;;;;;;11.57;7.90;;;13.20;99.90;;;;;;5043000;28;20546;-74
2023/09/15 05:12:48;;;;;;;13.82;7.45;;;13.10;99.90;;;;;;5050422;28;20213;-74
2023/09/15 05:15:14;;;;;;;12.55;8.13;;;13.00;99.90;;;;;;5050501;28;20631;-74
2023/09/15 05:17:40;;;;;;;12.75;7.68;;;13.10;99.90;;;;;;5050861;28;20185;-74
2023/09/15 05:20:06;;;;;;;11.18;7.30;;;13.10;99.90;;;;;;5050757;28;20165;-73
2023/09/15 05:22:32;;;;;;;11.05;7.70;;;13.10;99.90;;;;;;5032611;28;20181;-74
2023/09/15 05:24:58;;;;;;;12.98;7.80;;;13.00;99.90;;;;;;5050408;28;20187;-73
2023/09/15 05:27:23;;;;;;;12.90;7.85;;;12.90;99.90;;;;;;5031590;28;20185;-74
2023/09/15 05:29:50;;;;;;;11.23;7.53;;;13.00;99.90;;;;;;5030489;28;20181;-74
2023/09/15 05:32:16;;;;;;;12.65;7.85;;;12.90;99.90;;;;;;5030511;28;20213;-74
2023/09/15 05:34:41;;;;;;;11.70;8.02;;;12.90;99.90;;;;;;5030523;28;20174;-74
2023/09/15 05:37:07;;;;;;;13.68;8.45;;;;;;;;;;5030622;28;20177;-74
2023/09/15 05:39:33;;;;;;;12.30;8.43;;;12.90;99.90;;;;;;5030524;28;20301;-74
2023/09/15 05:42:00;;;;;;;15.63;8.43;;;12.90;99.90;;;;;;5030428;28;20169;-75
2023/09/15 05:44:26;;;;;;;12.75;8.57;;;12.90;99.90;;;;;;5030494;28;20174;-75
2023/09/15 05:46:52;;;;;;;17.42;9.38;;;13.00;99.90;;;;;;5030689;28;20265;-74
2023/09/15 05:49:18;;;;;;;16.02;9.15;;;13.10;99.90;;;;;;5030272;28;20174;-74
2023/09/15 05:51:44;;;;;;;13.95;8.23;;;13.10;99.90;;;;;;5030315;28;20680;-74
2023/09/15 05:54:09;;;;;;;12.38;8.48;;;13.00;99.90;;;;;;5012825;28;20633;-73
2023/09/15 05:56:35;;;;;;;14.02;8.00;;;13.00;99.90;;;;;;5030308;28;20198;-74
2023/09/15 05:59:01;;;;;;;14.45;8.13;;;13.00;99.90;;;;;;5030279;28;20235;-73
2023/09/15 06:01:26;;;;;;;12.88;7.97;;;13.00;99.90;;;;;;5030606;28;20640;-75
2023/09/15 06:03:52;;;;;;;10.93;8.05;;;13.00;99.90;;;;;;5032691;28;20181;-74
2023/09/15 06:06:18;;;;;;;12.35;7.43;;;13.10;99.90;;;;;;5034125;28;20208;-74
2023/09/15 06:08:43;;;;;;;14.77;8.05;;;13.00;99.90;;;;;;5034148;28;20220;-74
2023/09/15 06:11:09;;;;;;;13.32;8.30;;;12.90;99.90;;;;;;5034058;28;20648;-72
2023/09/15 06:13:36;;;;;;;13.10;8.52;;;13.00;99.90;;;;;;5034007;28;20166;-73
2023/09/15 06:16:04;;;;;;;14.77;8.45;;;12.90;99.90;;;;;;5033918;28;20170;-74
2023/09/15 06:18:30;;;;;;;13.30;8.50;;;13.00;99.90;;;;;;5033930;28;20220;-73
2023/09/15 06:20:56;;;;;;;14.68;8.88;;;13.00;99.90;;;;;;5033859;28;20227;-74
2023/09/15 06:23:22;;;;;;;12.50;8.43;;;13.00;99.90;;;;;;5033791;28;20252;-74
2023/09/15 06:25:48;;;;;;;12.07;8.18;;;13.00;99.90;;;;;;5032330;28;20229;-74
2023/09/15 06:28:14;;;;;;;13.43;8.20;;;13.10;99.90;;;;;;5033472;28;20255;-74
2023/09/15 06:30:40;;;;;;;14.75;9.25;;;13.10;99.90;;;;;;5033677;28;20293;-75
2023/09/15 06:33:05;;;;;;;16.35;9.43;;;13.20;99.90;;;;;;5033556;28;20987;-75
2023/09/15 06:35:31;;;;;;;12.02;8.73;;;13.30;99.90;;;;;;5033755;28;20739;-80
2023/09/15 06:37:57;;;;;;;16.30;9.73;;;13.40;99.90;;;;;;5015708;28;20174;-82
2023/09/15 06:40:23;;;;;;;15.50;9.25;;;13.60;99.90;;;;;;5033480;28;20593;-77
2023/09/15 06:42:48;;;;;;;15.90;9.80;;;13.60;99.90;;;;;;5016148;28;20177;-77
2023/09/15 06:45:14;;;;;;;16.08;9.27;;;13.60;99.90;;;;;;5033310;28;20582;-75
2023/09/15 06:47:40;;;;;;;12.60;9.07;;;13.70;99.90;;;;;;5033375;28;20165;-74
2023/09/15 06:50:05;;;;;;;16.27;9.18;;;13.80;99.90;;;;;;5033378;28;20625;-74
2023/09/15 06:52:31;;;;;;;17.85;9.30;;;14.00;99.90;;;;;;5015004;28;20351;-73
2023/09/15 06:54:57;;;;;;;14.43;9.00;;;;;;;;;;5015763;28;20182;-74
2023/09/15 06:57:23;;;;;;;13.90;9.35;;;14.10;99.90;;;;;;5030493;28;20190;-73
2023/09/15 06:59:49;;;;;;;14.75;9.30;;;14.20;99.90;;;;;;5032913;28;20257;-73
2023/09/15 07:02:14;;;;;;;15.98;8.88;;;14.10;99.90;;;;;;5033357;28;20324;-73
2023/09/15 07:04:40;;;;;;;15.48;10.30;;;14.00;99.90;;;;;;5032565;28;20273;-73
2023/09/15 07:07:06;;;;;;;15.55;10.02;;;14.00;99.90;;;;;;5014858;28;20667;-73
2023/09/15 07:09:31;;;;;;;18.98;10.77;;;14.00;99.90;;;;;;5032637;28;20174;-72
2023/09/15 07:11:57;;;;;;;18.95;10.85;;;14.10;99.90;;;;;;5032686;28;20996;-71
2023/09/15 07:14:22;;;;;;;18.42;10.02;;;14.20;99.90;;;;;;5031313;28;20170;-72
2023/09/15 07:16:48;;;;;;;16.27;10.13;;;14.40;99.90;;;;;;5040552;28;20174;-72
2023/09/15 07:19:14;;;;;;;15.90;11.00;;;14.60;99.90;;;;;;5034061;28;20197;-72
2023/09/15 07:21:41;;;;;;;18.85;10.95;;;14.80;99.90;;;;;;5015049;28;20182;-72
2023/09/15 07:24:11;;;;;;;18.92;10.75;;;15.00;99.90;;;;;;5032536;28;20178;-73
2023/09/15 07:26:37;;;;;;;21.35;11.00;;;15.10;99.90;;;;;;5032197;28;20226;-73
2023/09/15 07:29:03;;;;;;;16.05;10.38;;;15.30;99.90;;;;;;5032565;28;20706;-72
2023/09/15 07:31:32;;;;;;;21.20;10.77;;;15.40;99.90;;;;;;5032561;28;20255;-72
2023/09/15 07:33:58;;;;;;;18.38;11.27;;;15.40;99.90;;;;;;5032651;28;20182;-73
2023/09/15 07:36:23;;;;;;;21.50;11.35;;;15.70;99.90;;;;;;5032313;28;20220;-72
2023/09/15 07:38:49;;;;;;;19.42;11.65;;;15.70;99.90;;;;;;5032579;28;20166;-72
2023/09/15 07:41:14;;;;;;;24.42;12.00;;;15.80;99.90;;;;;;5014761;28;20170;-72
2023/09/15 07:43:40;;;;;;;21.48;13.40;;;15.80;99.90;;;;;;5032034;28;20256;-72
2023/09/15 07:46:06;;;;;;;21.55;12.48;;;15.70;99.90;;;;;;5014578;28;20181;-73
2023/09/15 07:48:31;;;;;;;21.75;12.45;;;15.70;99.90;;;;;;5031935;28;20632;-73
2023/09/15 07:50:57;;;;;;;23.20;11.90;;;15.80;99.90;;;;;;5032208;28;20185;-72
2023/09/15 07:53:23;;;;;;;23.48;12.13;;;15.90;99.90;;;;;;5032092;28;20170;-72
2023/09/15 07:55:49;;;;;;;20.58;12.48;;;15.90;99.90;;;;;;5032314;28;20178;-73
2023/09/15 07:58:14;;;;;;;18.95;12.65;;;16.00;99.90;;;;;;5031685;28;20692;-72
2023/09/15 08:00:40;;;;;;;21.92;13.30;;;16.40;99.90;;;;;;5031496;28;20182;-71
2023/09/15 08:03:05;;;;;;;24.73;14.07;;;16.00;99.90;;;;;;5050880;28;20256;-72
2023/09/15 08:05:31;;;;;;;21.63;13.13;;;16.20;99.90;;;;;;5046503;28;20174;-72
2023/09/15 08:07:57;;;;;;;23.35;13.30;;;16.20;99.90;;;;;;5031692;28;20185;-72
2023/09/15 08:10:23;;;;;;;23.73;12.63;;;16.40;99.90;;;;;;5031646;28;20177;-72
2023/09/15 08:12:52;;;;;;;18.45;11.05;;;16.40;99.90;;;;;;5031496;28;20368;-72
2023/09/15 08:15:21;;;;;;;19.70;10.57;;;16.50;99.90;;;;;;5013979;28;20178;-71
2023/09/15 08:17:48;;;;;;;22.15;11.85;;;16.40;99.90;;;;;;5031831;28;20174;-73
2023/09/15 08:20:14;;;;;;;25.70;13.02;;;15.90;99.90;;;;;;5031648;28;20247;-73
2023/09/15 08:22:40;;;;;;;26.50;13.93;;;15.60;99.90;;;;;;5031293;28;20624;-72
2023/09/15 08:25:10;;;;;;;25.73;13.85;;;15.50;99.90;;;;;;5012958;28;20170;-72
2023/09/15 08:27:37;;;;;;;26.83;13.55;;;15.50;99.90;;;;;;5031242;28;20223;-73
2023/09/15 08:30:03;;;;;;;20.83;11.23;;;15.40;99.90;;;;;;5031123;28;20180;-73
2023/09/15 08:32:31;;;;;;;19.02;10.73;;;15.50;99.90;;;;;;5038630;28;20213;-73
2023/09/15 08:34:57;;;;;;;22.00;11.30;;;15.90;99.90;;;;;;5033200;28;20189;-73
2023/09/15 08:37:23;;;;;;;18.52;10.05;;;15.90;99.90;;;;;;5046077;28;20204;-74
2023/09/15 08:39:49;;;;;;;19.73;10.25;;;15.80;99.90;;;;;;5021574;28;20201;-73
2023/09/15 08:42:26;;;;;;;19.27;9.48;;;15.90;99.90;;;;;;5031266;28;20177;-73
2023/09/15 08:44:52;;;;;;;21.05;10.15;;;15.70;99.90;;;;;;5013616;28;20625;-73
2023/09/15 08:47:20;;;;;;;21.05;9.23;;;15.80;99.90;;;;;;5018343;28;20240;-73
2023/09/15 08:49:46;;;;;;;18.45;8.88;;;15.70;99.90;;;;;;5030725;28;20212;-73
2023/09/15 08:52:15;;;;;;;21.00;8.68;;;16.00;99.90;;;;;;5030951;28;20212;-73
2023/09/15 08:54:41;;;;;;;20.55;9.32;;;16.10;99.90;;;;;;5029710;28;20178;-73
2023/09/15 08:57:07;;;;;;;16.40;9.10;;;16.40;99.90;;;;;;5030309;28;20169;-74
2023/09/15 08:59:34;;;;;;;17.27;9.07;;;16.70;99.90;;;;;;5012955;28;20590;-75
2023/09/15 09:02:00;;;;;;;18.65;9.43;;;16.90;99.90;;;;;;5030712;28;20173;-72
2023/09/15 09:04:26;;;;;;;22.08;9.77;;;16.90;99.90;;;;;;5031718;28;20170;-74
2023/09/15 09:06:52;;;;;;;14.88;8.35;;;17.00;99.90;;;;;;5030965;28;20231;-73
2023/09/15 09:09:18;;;;;;;19.45;9.75;;;17.40;99.90;;;;;;5030811;28;20209;-74
2023/09/15 09:11:46;;;;;;;17.73;9.65;;;17.60;99.90;;;;;;5030680;28;20214;-74
2023/09/15 09:14:12;;;;;;;16.08;9.27;;;18.10;99.90;;;;;;5030270;28;20235;-74
2023/09/15 09:16:44;;;;;;;16.98;9.70;;;18.20;99.90;;;;;;5030070;28;20665;-74
2023/09/15 09:19:10;;;;;;;18.27;9.43;;;18.20;99.90;;;;;;5030500;28;20235;-74
2023/09/15 09:21:37;;;;;;;21.35;10.75;;;18.50;99.90;;;;;;5030175;28;20539;-75
2023/09/15 09:24:03;;;;;;;21.30;10.65;;;18.50;99.90;;;;;;5030324;28;20178;-75
2023/09/15 09:26:29;;;;;;;21.25;11.00;;;18.40;99.90;;;;;;5030543;28;20217;-75
2023/09/15 09:28:57;;;;;;;20.80;10.82;;;18.60;99.90;;;;;;5046661;28;20251;-75
2023/09/15 09:31:24;;;;;;;18.52;10.55;;;18.80;99.90;;;;;;5030150;28;20224;-76
2023/09/15 09:33:50;;;;;;;20.70;11.68;;;19.00;99.90;;;;;;5030463;28;20640;-75
2023/09/15 09:36:16;;;;;;;21.50;11.20;;;18.90;99.90;;;;;;5030236;28;20182;-75
2023/09/15 09:38:46;;;;;;;19.33;10.90;;;19.00;99.90;;;;;;5032617;28;20185;-75
2023/09/15 09:41:13;;;;;;;18.95;10.57;;;18.70;99.90;;;;;;5034474;28;20207;-75
2023/09/15 09:43:40;;;;;;;18.75;9.98;;;18.90;99.90;;;;;;5034593;28;20166;-75
2023/09/15 09:46:06;;;;;;;17.38;9.32;;;19.40;99.90;;;;;;5034501;28;20180;-75
2023/09/15 09:48:34;;;;;;;15.77;8.18;;;19.80;99.90;;;;;;5034474;28;20851;-75
2023/09/15 09:51:04;;;;;;;15.07;8.50;;;19.80;99.90;;;;;;5032192;28;20182;-75
2023/09/15 09:53:32;;;;;;;17.98;9.07;;;20.60;99.90;;;;;;5034176;28;20182;-74
2023/09/15 09:56:00;;;;;;;15.32;8.82;;;20.60;99.90;;;;;;5033799;28;20637;-74
2023/09/15 09:58:26;;;;;;;18.55;9.70;;;20.40;99.90;;;;;;5033412;28;20545;-73
2023/09/15 10:00:52;;;;;;;22.08;10.40;;;20.40;99.90;;;;;;5033460;28;20181;-74
2023/09/15 10:03:18;;;;;;;22.45;10.35;;;19.90;99.90;;;;;;5033800;28;20207;-74
2023/09/15 10:05:44;;;;;;;22.13;11.20;;;19.90;99.90;;;;;;5033449;28;20182;-74
2023/09/15 10:08:11;;;;;;;18.65;10.32;;;21.20;99.90;;;;;;5033707;28;20636;-75
2023/09/15 10:10:41;;;;;;;16.85;8.65;;;22.20;99.90;;;;;;5034025;28;20166;-75
2023/09/15 10:13:08;;;;;;;16.92;11.32;;;23.10;99.90;;;;;;5033913;28;20219;-75
2023/09/15 10:15:35;;;;;;;17.67;10.77;;;22.20;99.90;;;;;;5033626;28;20174;-75
2023/09/15 10:18:04;;;;;;;16.02;10.15;;;23.80;99.90;;;;;;5033946;28;20174;-75
2023/09/15 10:20:30;;;;;;;17.73;9.82;;;23.70;99.90;;;;;;5033917;28;20245;-74
2023/09/15 10:22:57;;;;;;;17.55;10.85;;;22.30;99.90;;;;;;5033521;28;20355;-75
2023/09/15 10:25:23;;;;;;;15.82;10.30;;;22.10;99.90;;;;;;5033608;28;20297;-74
2023/09/15 10:27:49;;;;;;;19.13;11.32;;;22.00;99.90;;;;;;5032873;28;20178;-76
2023/09/15 10:30:16;;;;;;;16.17;10.45;;;21.40;99.90;;;;;;5050886;28;20200;-77
2023/09/15 10:32:43;;;;;;;15.30;10.95;;;20.40;99.90;;;;;;5049502;28;20296;-75
2023/09/15 10:35:10;;;;;;;17.20;10.00;;;22.00;39.20;;;;;;5032059;28;20253;-76
2023/09/15 10:37:43;;;;;;;14.27;9.73;;;21.90;6.60;;;;;;5031495;28;20178;-74
2023/09/15 10:40:10;;;;;;;15.88;8.82;;;22.50;99.90;;;;;;5031604;28;20384;-74
2023/09/15 10:42:50;;;;;;;13.43;8.23;;;22.80;1.00;;;;;;5030509;28;20185;-74
2023/09/15 10:45:16;;;;;;;12.27;8.40;;;22.50;1.00;;;;;;5031772;28;20224;-77
2023/09/15 10:47:42;;;;;;;12.65;8.27;;;24.00;76.00;;;;;;5032467;28;20177;-75
2023/09/15 10:50:08;;;;;;;11.57;7.60;;;23.40;1.00;;;;;;5033022;28;20256;-75
2023/09/15 10:52:35;;;;;;;12.23;8.05;;;23.60;99.90;;;;;;5033619;28;20244;-75
2023/09/15 10:55:02;;;;;;;12.15;8.15;;;24.50;1.00;;;;;;5033315;28;20629;-75
2023/09/15 10:57:28;;;;;;;11.45;7.55;;;24.60;1.00;;;;;;5033136;28;20197;-76
2023/09/15 10:59:55;;;;;;;12.07;7.53;;;24.00;1.00;;;;;;5015278;28;20174;-76
2023/09/15 11:02:21;;;;;;;12.10;7.53;;;24.80;58.70;;;;;;5033065;28;20166;-76
2023/09/15 11:04:48;;;;;;;9.10;6.60;;;26.00;1.00;;;;;;5033073;28;20253;-76
2023/09/15 11:07:16;;;;;;;12.82;7.85;;;26.00;1.00;;;;;;5033029;28;20573;-75
2023/09/15 11:09:42;;;;;;;12.55;7.10;;;25.80;99.90;;;;;;5032879;28;20181;-77
2023/09/15 11:12:10;;;;;;;10.82;6.88;;;26.40;1.00;;;;;;5033292;28;20206;-76
2023/09/15 11:14:36;;;;;;;11.70;7.55;;;27.70;99.90;;;;;;5015097;28;20166;-76
2023/09/15 11:17:03;;;;;;;12.40;6.75;;;27.90;1.00;;;;;;5032917;28;20169;-76
2023/09/15 11:19:30;;;;;;;10.40;6.47;;;27.80;1.00;;;;;;5032908;28;20223;-76
2023/09/15 11:21:56;;;;;;;8.60;5.85;;;27.70;99.90;;;;;;5033091;28;20177;-76
2023/09/15 11:24:22;;;;;;;9.80;6.40;;;28.10;99.90;;;;;;5032619;28;20169;-77
2023/09/15 11:26:52;;;;;;;9.95;5.63;;;28.20;72.40;;;;;;5032696;28;20563;-77
2023/09/15 11:29:25;;;;;;;10.23;6.70;;;27.70;34.70;;;;;;5032448;28;20182;-77
2023/09/15 11:31:53;;;;;;;10.85;6.63;;;28.00;1.00;;;;;;5032515;28;20301;-76
2023/09/15 11:34:19;;;;;;;8.70;6.47;;;26.80;99.90;;;;;;5032634;28;20181;-77
2023/09/15 11:36:45;;;;;;;6.70;5.63;;;27.50;99.90;;;;;;5032601;28;20173;-77
2023/09/15 11:39:12;;;;;;;8.77;5.55;;;27.70;1.00;;;;;;5032621;28;20169;-77
2023/09/15 11:41:39;;;;;;;10.73;5.47;;;27.00;1.00;;;;;;5014745;28;20268;-77
2023/09/15 11:44:08;;;;;;;9.63;5.97;;;26.10;1.00;;;;;;5032222;28;20197;-76
2023/09/15 11:46:35;;;;;;;6.72;4.72;;;27.00;99.90;;;;;;5032178;28;20177;-77
2023/09/15 11:49:02;;;;;;;7.72;5.35;;;27.50;26.70;;;;;;5032342;28;20200;-77
2023/09/15 11:51:28;;;;;;;10.25;6.10;;;26.90;99.90;;;;;;5014690;28;20193;-77
2023/09/15 11:53:58;;;;;;;8.27;5.45;;;26.10;99.90;;;;;;5032073;28;20184;-76
2023/09/15 11:56:23;;;;;;;7.32;5.05;;;26.20;1.00;;;;;;5031805;28;20170;-77
2023/09/15 11:58:50;;;;;;;9.93;5.72;;;27.30;19.20;;;;;;5031941;28;20267;-77
2023/09/15 12:01:17;;;;;;;12.45;5.50;;;28.60;99.90;;;;;;5030866;28;20169;-77
2023/09/15 12:03:45;;;;;;;9.93;5.38;;;29.00;99.90;;;;;;5014145;28;20181;-77
2023/09/15 12:06:12;;;;;;;10.30;4.88;;;29.30;1.00;;;;;;5031961;28;20173;-77
2023/09/15 12:08:37;;;;;;;8.13;4.30;;;30.00;1.00;;;;;;5032053;28;20169;-77
2023/09/15 12:11:08;;;;;;;7.78;4.53;;;30.60;1.00;;;;;;5031779;28;20252;-76
2023/09/15 12:13:38;;;;;;;7.15;4.70;;;30.50;1.00;;;;;;5031411;28;20181;-76
2023/09/15 12:16:06;;;;;;;9.80;4.80;;;29.70;1.00;;;;;;5031485;28;20173;-76
2023/09/15 12:18:36;;;;;;;9.13;5.97;;;29.10;1.00;;;;;;5030790;28;20204;-75
2023/09/15 12:21:02;;;;;;;8.40;4.75;;;29.70;1.00;;;;;;5041518;28;20176;-75
2023/09/15 12:23:28;;;;;;;6.55;4.57;;;29.10;1.00;;;;;;5034377;28;20169;-76
2023/09/15 12:25:54;;;;;;;9.43;5.00;;;28.30;1.00;;;;;;5036902;28;20311;-75
2023/09/15 12:28:22;;;;;;;10.00;4.95;;;28.20;1.00;;;;;;5031232;28;20259;-76
2023/09/15 12:30:50;;;;;;;7.75;4.32;;;28.30;1.00;;;;;;5031535;28;20174;-77
2023/09/15 12:33:19;;;;;;;10.30;5.28;;;28.20;1.00;;;;;;5031291;28;20209;-76
2023/09/15 12:35:48;;;;;;;8.20;3.53;;;27.90;1.00;;;;;;5031520;28;20174;-76
2023/09/15 12:38:17;;;;;;;7.05;5.30;;;28.10;1.00;;;;;;5031423;28;20188;-76